Flight Track Log - Related Links

Times and Time Zones

All times are in EDT time to prevent confusion due to time zone crossing. See the SWA16 flight status page for this flight to view local times or setup timezone preferences in your user account.

Time Position Orientation Groundspeed Altitude Reporting Facility
EDT Latitude Longitude Course Direction KTS MPH feet Rate Location/Type
Tue 11:08:36 AM 29.6564 -95.2394 39° Northeast 234 269 2,200  Level Houston Center
Tue 11:09:38 AM 29.7236 -95.2611 344° North 244 281 4,800 3,048 Climbing Houston Center
Tue 11:10:40 AM 29.7972 -95.2831 345° North 266 306 8,500 3,048 Climbing Houston Center
Tue 11:11:42 AM 29.8733 -95.3028 347° North 276 318 11,100 3,435 Climbing Houston Center
Tue 11:12:44 AM 29.9783 -95.3306 347° North 317 365 15,600 3,726 Climbing Houston Center
Tue 11:13:00 AM 29.9823 -95.3482 347° North  Level FlightAware Approximate
Tue 11:13:46 AM 30.0733 -95.3553 347° North 344 396 18,800  Level Houston Center
Tue 11:14:48 AM 30.1731 -95.3825 347° North 365 420 21,900 2,855 Climbing Houston Center
Tue 11:15:50 AM 30.2764 -95.4092 347° North 377 434 24,700 2,855 Climbing Houston Center
Tue 11:16:52 AM 30.3828 -95.4389 346° North 389 448 27,800 2,544 Climbing Houston Center
Tue 11:17:55 AM 30.4867 -95.4642 348° North 382 440 30,000 1,056 Climbing Houston Center
Tue 11:18:57 AM 30.6142 -95.4933 349° North 389 448 30,000  Level Houston Center
Tue 11:19:59 AM 30.7197 -95.5164 349° North 387 445 30,000  Level Houston Center
Tue 11:21:01 AM 30.8239 -95.5406 349° North 382 440 30,000  Level Houston Center
Tue 11:22:03 AM 30.9300 -95.5647 349° North 384 442 30,000  Level Houston Center
Tue 11:23:05 AM 31.0364 -95.5889 349° North 386 444 30,000  Level Houston Center
Tue 11:24:07 AM 31.1628 -95.6172 349° North 385 443 30,000  Level Houston Center
Tue 11:25:15 AM 31.2803 -95.6439 349° North 391 450 30,000  Level Fort Worth Center
Tue 11:26:15 AM 31.3831 -95.6758 345° North 384 442 30,000  Level Fort Worth Center
Tue 11:27:15 AM 31.4736 -95.7375 330° Northwest 374 430 30,000  Level Fort Worth Center
Tue 11:28:15 AM 31.5664 -95.8017 329° Northwest 374 430 30,000 -850 Level Fort Worth Center
Tue 11:29:15 AM 31.6569 -95.8611 331° Northwest 379 436 28,300 -2,000 Descending Fort Worth Center
Tue 11:30:15 AM 31.7389 -95.9158 330° Northwest 387 445 26,000 -2,400 Descending Fort Worth Center
Tue 11:31:15 AM 31.8397 -95.9778 332° Northwest 374 430 23,500 -2,350 Descending Fort Worth Center
Tue 11:32:15 AM 31.9261 -96.0328 332° Northwest 362 417 21,300 -2,250 Descending Fort Worth Center
Tue 11:33:15 AM 32.0103 -96.0903 330° Northwest 352 405 19,000 -1,950 Descending Fort Worth Center
Tue 11:34:15 AM 32.0858 -96.1408 330° Northwest 346 398 17,400 -1,900 Descending Fort Worth Center
Tue 11:35:15 AM 32.1678 -96.1961 330° Northwest 336 387 15,200 -2,250 Descending Fort Worth Center
Tue 11:36:15 AM 32.2456 -96.2417 334° Northwest 329 379 12,900 -2,250 Descending Fort Worth Center
Tue 11:37:15 AM 32.3294 -96.2997 330° Northwest 323 372 10,700 -1,500 Descending Fort Worth Center
Tue 11:38:15 AM 32.3967 -96.3431 331° Northwest 307 353 9,900 -1,100 Descending Fort Worth Center
Tue 11:39:15 AM 32.4703 -96.3914 331° Northwest 290 334 8,500 -1,200 Descending Fort Worth Center
Tue 11:40:15 AM 32.5331 -96.4278 334° Northwest 280 322 7,500 -1,000 Descending Fort Worth Center
Tue 11:41:15 AM 32.6064 -96.4739 332° Northwest 275 316 6,500 -1,000 Descending Fort Worth Center
Tue 11:42:15 AM 32.6672 -96.5103 333° Northwest 269 310 5,500 -750 Descending Fort Worth Center
Tue 11:43:15 AM 32.7303 -96.5689 322° Northwest 269 310 5,000 -250 Descending Fort Worth Center
Tue 11:44:15 AM 32.7808 -96.6228 318° Northwest 269 310 5,000 -450 Level Fort Worth Center
Tue 11:45:15 AM 32.8439 -96.6839 321° Northwest 263 303 4,100 -1,000 Descending Fort Worth Center
Tue 11:46:15 AM 32.8983 -96.7453 317° Northwest 263 303 3,000 -550 Descending Fort Worth Center
Tue 11:47:15 AM 32.9447 -96.8069 312° West 255 293 3,000  Level Fort Worth Center
Tue 11:48:15 AM 32.9469 -96.8664 273° West 218 251 3,000 -350 Level Fort Worth Center
Tue 11:49:15 AM 32.9158 -96.8986 221° Southwest 157 181 2,300 -1,000 Descending Fort Worth Center
Tue 11:50:15 AM 32.8761 -96.8842 163° South 118 136 1,000 -1,300 Descending Fort Worth Center
Tue 11:52:00 AM 32.8471 -96.8518 194° South  Level Estimated
Tue 11:59:00 AM 32.8471 -96.8518 194° South  Level Estimated

Login

Don't have an account? Register now (free) for customized features, flight alerts, and more!